createdAt,value
2022-12-25T00:00:58.241Z,83.99
2022-12-25T00:03:30.045Z,84.40
2022-12-25T00:06:03.154Z,84.84
2022-12-25T00:08:35.201Z,84.84
2022-12-25T00:11:09.801Z,84.26
2022-12-25T00:13:41.477Z,84.04
2022-12-25T00:16:16.547Z,84.18
2022-12-25T00:18:49.120Z,84.34
2022-12-25T00:21:21.414Z,84.19
2022-12-25T00:23:57.007Z,84.00
2022-12-25T00:26:29.861Z,84.03
2022-12-25T00:29:07.793Z,83.90
2022-12-25T00:31:42.508Z,84.00
2022-12-25T00:34:12.751Z,84.62
2022-12-25T00:36:44.957Z,84.71
2022-12-25T00:39:16.972Z,83.93
2022-12-25T00:42:06.200Z,84.07
2022-12-25T00:44:42.577Z,84.50
2022-12-25T00:47:14.125Z,84.86
2022-12-25T00:49:46.995Z,85.28
2022-12-25T00:52:18.883Z,84.89
2022-12-25T00:54:50.287Z,84.40
2022-12-25T00:57:21.837Z,84.53
2022-12-25T00:59:53.474Z,85.01
2022-12-25T01:02:25.728Z,84.95
2022-12-25T01:04:58.577Z,84.50
2022-12-25T01:07:30.817Z,84.25
2022-12-25T01:10:19.920Z,84.55
2022-12-25T01:12:52.306Z,84.68
2022-12-25T01:15:24.311Z,84.77
2022-12-25T01:17:55.942Z,84.73
2022-12-25T01:20:27.812Z,84.67
2022-12-25T01:22:59.301Z,84.37
2022-12-25T01:25:30.991Z,84.76
2022-12-25T01:28:02.623Z,84.91
2022-12-25T01:30:34.723Z,84.74
2022-12-25T01:33:06.416Z,84.91
2022-12-25T01:35:40.507Z,84.49
2022-12-25T01:38:12.169Z,84.25
2022-12-25T01:40:43.668Z,84.39
2022-12-25T01:43:24.718Z,84.75
2022-12-25T01:45:56.799Z,84.36
2022-12-25T01:48:32.102Z,83.90
2022-12-25T01:51:07.719Z,84.31
2022-12-25T01:53:40.874Z,84.68
2022-12-25T01:56:13.383Z,84.97
2022-12-25T01:58:45.007Z,84.48
2022-12-25T02:01:16.667Z,84.75
2022-12-25T02:03:48.302Z,85.29
2022-12-25T02:06:19.896Z,85.55
2022-12-25T02:08:52.463Z,85.64
2022-12-25T02:11:37.688Z,85.61
2022-12-25T02:14:09.579Z,85.75
2022-12-25T02:16:57.005Z,85.84
2022-12-25T02:19:53.053Z,85.25
2022-12-25T02:22:41.052Z,84.19
2022-12-25T02:25:32.022Z,84.08
2022-12-25T02:28:17.776Z,83.91
2022-12-25T02:30:54.573Z,84.31
2022-12-25T02:33:49.368Z,84.72
2022-12-25T02:36:26.462Z,84.47
2022-12-25T02:39:19.045Z,84.31
2022-12-25T02:41:55.363Z,84.26
2022-12-25T02:44:47.032Z,84.10
2022-12-25T02:47:36.546Z,84.54
2022-12-25T02:50:27.710Z,85.13
2022-12-25T02:53:18.212Z,85.33
2022-12-25T02:56:08.907Z,85.18
2022-12-25T02:59:01.876Z,84.88
2022-12-25T03:01:53.965Z,84.80
2022-12-25T03:04:47.668Z,84.59
2022-12-25T03:07:23.120Z,84.77
2022-12-25T03:10:16.606Z,84.55
2022-12-25T03:12:55.385Z,84.08
2022-12-25T03:15:44.672Z,84.43
2022-12-25T03:18:20.403Z,84.75
2022-12-25T03:21:09.112Z,85.08
2022-12-25T03:24:00.154Z,84.99
2022-12-25T03:26:48.997Z,84.87
2022-12-25T03:29:34.061Z,84.88
2022-12-25T03:32:14.611Z,84.63
2022-12-25T03:35:12.329Z,84.29
2022-12-25T03:38:12.111Z,84.40
2022-12-25T03:41:14.886Z,84.60
2022-12-25T03:44:11.105Z,84.79
2022-12-25T03:47:07.573Z,84.38
2022-12-25T03:50:05.202Z,83.97
2022-12-25T03:52:57.202Z,84.18
2022-12-25T03:55:55.285Z,83.94
2022-12-25T03:58:46.304Z,84.35
2022-12-25T04:01:35.415Z,84.61
2022-12-25T04:04:24.437Z,84.32
2022-12-25T04:07:13.363Z,83.70
2022-12-25T04:10:02.363Z,83.92
2022-12-25T04:12:51.037Z,84.00
2022-12-25T04:15:40.353Z,84.17
2022-12-25T04:18:29.232Z,84.70
2022-12-25T04:21:18.106Z,84.47
2022-12-25T04:24:06.724Z,84.71
2022-12-25T04:26:55.717Z,84.60
2022-12-25T04:29:44.595Z,84.74
2022-12-25T04:32:34.554Z,85.34
2022-12-25T04:35:24.476Z,85.52
2022-12-25T04:37:56.224Z,85.73
2022-12-25T04:40:27.887Z,85.61
2022-12-25T04:42:59.513Z,85.50
2022-12-25T04:45:30.951Z,85.26
2022-12-25T04:48:04.062Z,85.50
2022-12-25T04:50:35.543Z,85.19
2022-12-25T04:53:06.965Z,85.62
2022-12-25T04:55:38.443Z,85.61
2022-12-25T04:58:10.694Z,85.28
2022-12-25T05:00:42.575Z,84.95
2022-12-25T05:03:14.279Z,85.18
2022-12-25T05:05:45.799Z,85.34
2022-12-25T05:08:17.309Z,85.35
2022-12-25T05:10:48.811Z,85.24
2022-12-25T05:13:20.561Z,85.43
2022-12-25T05:15:52.328Z,85.19
2022-12-25T05:18:24.353Z,84.92
2022-12-25T05:20:56.417Z,84.84
2022-12-25T05:23:28.567Z,84.97
2022-12-25T05:26:00.424Z,84.67
2022-12-25T05:28:32.016Z,84.82
2022-12-25T05:31:03.964Z,85.10
2022-12-25T05:33:35.567Z,85.24
2022-12-25T05:36:09.167Z,84.68
2022-12-25T05:38:41.003Z,84.21
2022-12-25T05:41:12.506Z,84.19
2022-12-25T05:43:44.346Z,84.52
2022-12-25T05:46:16.613Z,84.82
2022-12-25T05:48:48.374Z,84.57
2022-12-25T05:51:19.863Z,84.27
2022-12-25T05:53:51.534Z,84.12
2022-12-25T05:56:23.065Z,84.20
2022-12-25T05:58:54.493Z,84.03
2022-12-25T06:01:29.088Z,83.67
2022-12-25T06:03:59.811Z,84.13
2022-12-25T06:06:31.413Z,84.32
2022-12-25T06:09:02.907Z,84.35
2022-12-25T06:11:34.398Z,84.72
2022-12-25T06:14:06.081Z,84.54
2022-12-25T06:16:38.475Z,84.49
2022-12-25T06:19:10.839Z,84.62
2022-12-25T06:21:42.380Z,84.58
2022-12-25T06:24:20.831Z,84.85
2022-12-25T06:26:53.476Z,84.87
2022-12-25T06:29:25.017Z,84.80
2022-12-25T06:31:57.642Z,85.11
2022-12-25T06:34:29.626Z,85.03
2022-12-25T06:37:01.381Z,85.12
2022-12-25T06:39:33.429Z,84.94
2022-12-25T06:42:05.060Z,85.03
2022-12-25T06:44:36.581Z,85.26
2022-12-25T06:47:08.109Z,85.13
2022-12-25T06:49:39.802Z,84.82
2022-12-25T06:52:11.374Z,84.92
2022-12-25T06:54:42.858Z,84.94
2022-12-25T06:57:14.404Z,84.28
2022-12-25T06:59:49.896Z,83.66
2022-12-25T07:02:27.822Z,83.63
2022-12-25T07:04:59.654Z,83.68
2022-12-25T07:07:31.202Z,83.86
2022-12-25T07:10:02.759Z,84.00
2022-12-25T07:12:34.317Z,83.96
2022-12-25T07:15:06.589Z,83.79
2022-12-25T07:17:38.118Z,83.89
2022-12-25T07:20:11.744Z,83.59
2022-12-25T07:22:43.180Z,83.74
2022-12-25T07:25:14.789Z,83.49
2022-12-25T07:27:46.437Z,83.32
2022-12-25T07:30:18.509Z,83.35
2022-12-25T07:32:51.911Z,83.58
2022-12-25T07:35:23.988Z,83.50
2022-12-25T07:37:55.465Z,83.75
2022-12-25T07:40:27.163Z,84.04
2022-12-25T07:42:58.890Z,83.71
2022-12-25T07:45:30.543Z,84.13
2022-12-25T07:48:05.520Z,84.16
2022-12-25T07:50:38.730Z,83.70
2022-12-25T07:53:11.640Z,83.38
2022-12-25T07:55:43.164Z,83.92
2022-12-25T07:58:18.561Z,83.85
2022-12-25T08:00:54.559Z,83.35
2022-12-25T08:03:26.638Z,83.47
2022-12-25T08:06:00.167Z,83.81
2022-12-25T08:08:31.992Z,83.91
2022-12-25T08:11:04.242Z,83.50
2022-12-25T08:13:36.304Z,83.36
2022-12-25T08:16:10.330Z,83.32
2022-12-25T08:18:43.341Z,83.54
2022-12-25T08:21:16.922Z,84.09
2022-12-25T08:23:49.961Z,84.00
2022-12-25T08:26:24.053Z,83.61
2022-12-25T08:28:55.773Z,83.51
2022-12-25T08:31:29.890Z,84.18
2022-12-25T08:34:03.336Z,84.04
2022-12-25T08:36:35.190Z,84.46
2022-12-25T08:39:07.028Z,84.69
2022-12-25T08:41:39.287Z,84.59
2022-12-25T08:44:13.487Z,84.71
2022-12-25T08:46:45.166Z,84.66
2022-12-25T08:49:16.836Z,84.53
2022-12-25T08:51:49.025Z,84.23
2022-12-25T08:54:20.546Z,83.57
2022-12-25T08:56:55.077Z,84.24
2022-12-25T08:59:28.912Z,84.59
2022-12-25T09:02:00.648Z,84.32
2022-12-25T09:04:32.981Z,84.16
2022-12-25T09:07:04.726Z,83.92
2022-12-25T09:09:36.233Z,83.54
2022-12-25T09:12:08.129Z,83.44
2022-12-25T09:14:39.801Z,84.27
2022-12-25T09:17:12.984Z,84.62
2022-12-25T09:19:45.469Z,84.63
2022-12-25T09:22:18.358Z,84.47
2022-12-25T09:24:51.677Z,84.38
2022-12-25T09:27:23.374Z,84.39
2022-12-25T09:29:54.991Z,84.32
2022-12-25T09:32:26.630Z,84.23
2022-12-25T09:34:58.137Z,84.37
2022-12-25T09:37:30.127Z,84.63
2022-12-25T09:40:01.840Z,84.70
2022-12-25T09:42:35.596Z,83.97
2022-12-25T09:45:14.429Z,83.69
2022-12-25T09:47:49.844Z,83.52
2022-12-25T09:50:28.620Z,83.05
2022-12-25T09:53:07.457Z,83.36
2022-12-25T09:55:45.233Z,82.82
2022-12-25T09:58:17.843Z,83.27
2022-12-25T10:01:30.180Z,83.81
2022-12-25T10:04:31.892Z,83.62
2022-12-25T10:07:15.746Z,82.56
2022-12-25T10:10:18.261Z,82.67
2022-12-25T10:13:03.435Z,82.78
2022-12-25T10:15:39.133Z,82.66
2022-12-25T10:18:41.903Z,82.04
2022-12-25T10:21:18.527Z,81.58
2022-12-25T10:23:53.701Z,81.25
2022-12-25T10:26:27.224Z,81.77
2022-12-25T10:29:03.449Z,81.91
2022-12-25T10:31:38.851Z,82.06
2022-12-25T10:34:13.990Z,81.88
2022-12-25T10:36:47.655Z,81.60
2022-12-25T10:39:22.232Z,82.02
2022-12-25T10:42:28.179Z,82.02
2022-12-25T10:45:01.381Z,81.29
2022-12-25T10:47:37.672Z,81.48
2022-12-25T10:50:19.681Z,82.16
2022-12-25T10:52:56.786Z,82.57
2022-12-25T10:55:29.675Z,82.84
2022-12-25T10:58:02.279Z,82.57
2022-12-25T11:00:35.516Z,82.55
2022-12-25T11:03:07.451Z,82.92
2022-12-25T11:05:39.561Z,83.23
2022-12-25T11:08:23.322Z,83.40
2022-12-25T11:11:06.656Z,83.47
2022-12-25T11:13:42.462Z,83.63
2022-12-25T11:16:26.746Z,83.37
2022-12-25T11:18:59.622Z,83.24
2022-12-25T11:21:32.992Z,83.35
2022-12-25T11:24:06.604Z,82.86
2022-12-25T11:26:50.429Z,83.11
2022-12-25T11:29:30.730Z,83.24
2022-12-25T11:32:04.233Z,83.20
2022-12-25T11:34:38.820Z,83.52
2022-12-25T11:37:17.355Z,83.35
2022-12-25T11:39:49.544Z,83.64
2022-12-25T11:42:26.816Z,83.35
2022-12-25T11:45:03.991Z,83.58
2022-12-25T11:47:40.031Z,83.48
2022-12-25T11:50:23.915Z,83.10
2022-12-25T11:52:56.794Z,83.00
2022-12-25T11:55:35.822Z,83.13
2022-12-25T11:58:15.035Z,83.55
2022-12-25T12:00:51.421Z,82.89
2022-12-25T12:03:28.859Z,82.75
2022-12-25T12:06:03.962Z,83.34
2022-12-25T12:08:37.063Z,83.10
2022-12-25T12:11:18.645Z,82.38
2022-12-25T12:14:07.634Z,82.45
2022-12-25T12:16:39.699Z,82.12
2022-12-25T12:19:29.130Z,82.60
2022-12-25T12:22:03.028Z,82.88
2022-12-25T12:24:39.935Z,82.82
2022-12-25T12:27:24.060Z,82.66
2022-12-25T12:29:58.429Z,82.52
2022-12-25T12:32:46.405Z,82.87
2022-12-25T12:35:21.643Z,83.06
2022-12-25T12:37:56.504Z,82.44
2022-12-25T12:40:37.091Z,82.74
2022-12-25T12:43:25.974Z,82.34
2022-12-25T12:46:03.640Z,82.50
2022-12-25T12:48:42.359Z,82.68
2022-12-25T12:51:15.805Z,82.66
2022-12-25T12:53:47.396Z,82.68
2022-12-25T12:56:21.825Z,82.95
2022-12-25T12:58:53.672Z,82.20
2022-12-25T13:01:44.363Z,82.65
2022-12-25T13:04:47.669Z,82.77
2022-12-25T13:07:33.687Z,83.09
2022-12-25T13:10:23.170Z,83.22
2022-12-25T13:12:59.716Z,83.07
2022-12-25T13:15:34.458Z,82.38
2022-12-25T13:18:07.261Z,82.59
2022-12-25T13:20:47.550Z,82.32
2022-12-25T13:23:28.308Z,82.10
2022-12-25T13:26:01.386Z,81.85
2022-12-25T13:28:34.935Z,81.74
2022-12-25T13:31:15.208Z,82.06
2022-12-25T13:33:50.530Z,81.77
2022-12-25T13:36:22.352Z,81.94
2022-12-25T13:38:56.758Z,82.27
2022-12-25T13:41:53.671Z,82.08
2022-12-25T13:44:29.033Z,81.91
2022-12-25T13:47:16.575Z,81.62
2022-12-25T13:49:49.058Z,81.86
2022-12-25T13:52:21.851Z,82.22
2022-12-25T13:55:00.574Z,81.67
2022-12-25T13:57:36.087Z,81.16
2022-12-25T14:00:18.365Z,81.35
2022-12-25T14:02:50.734Z,81.44
2022-12-25T14:05:42.863Z,81.64
2022-12-25T14:08:20.849Z,81.63
2022-12-25T14:10:54.590Z,81.43
2022-12-25T14:13:30.219Z,81.23
2022-12-25T14:16:02.550Z,81.17
2022-12-25T14:18:35.654Z,80.71
2022-12-25T14:21:12.566Z,80.23
2022-12-25T14:23:46.880Z,80.50
2022-12-25T14:26:24.115Z,80.50
2022-12-25T14:28:59.395Z,80.82
2022-12-25T14:31:33.081Z,80.74
2022-12-25T14:34:06.852Z,80.97
2022-12-25T14:36:39.066Z,81.33
2022-12-25T14:39:29.555Z,81.34
2022-12-25T14:42:02.128Z,81.22
2022-12-25T14:44:39.045Z,80.97
2022-12-25T14:47:18.034Z,80.94
2022-12-25T14:49:49.956Z,81.55
2022-12-25T14:52:24.697Z,81.64
2022-12-25T14:54:55.918Z,81.45
2022-12-25T14:57:31.352Z,80.94
2022-12-25T15:00:07.880Z,81.33
2022-12-25T15:02:46.013Z,81.46
2022-12-25T15:05:41.012Z,81.03
2022-12-25T15:08:27.340Z,81.08
2022-12-25T15:11:02.308Z,81.03
2022-12-25T15:13:34.645Z,81.39
2022-12-25T15:16:14.642Z,81.21
2022-12-25T15:18:48.481Z,81.27
2022-12-25T15:21:24.749Z,81.19
2022-12-25T15:23:58.419Z,80.75
2022-12-25T15:26:32.157Z,80.79
2022-12-25T15:29:03.744Z,81.57
2022-12-25T15:31:37.902Z,81.57
2022-12-25T15:34:22.235Z,81.47
2022-12-25T15:36:53.864Z,81.30
2022-12-25T15:39:25.359Z,81.06
2022-12-25T15:42:14.992Z,81.03
2022-12-25T15:44:47.324Z,81.30
2022-12-25T15:47:20.383Z,81.19
2022-12-25T15:49:52.350Z,80.68
2022-12-25T15:52:23.990Z,80.64
2022-12-25T15:54:55.665Z,81.28
2022-12-25T15:57:27.221Z,80.88
2022-12-25T15:59:58.880Z,80.68
2022-12-25T16:02:30.577Z,80.91
2022-12-25T16:05:09.961Z,81.53
2022-12-25T16:07:42.125Z,81.89
2022-12-25T16:10:18.210Z,81.88
2022-12-25T16:12:49.783Z,81.68
2022-12-25T16:15:21.420Z,81.68
2022-12-25T16:17:52.912Z,81.11
2022-12-25T16:20:24.464Z,81.64
2022-12-25T16:22:55.866Z,82.12
2022-12-25T16:25:27.634Z,82.23
2022-12-25T16:27:59.166Z,82.07
2022-12-25T16:30:31.096Z,81.82
2022-12-25T16:33:02.741Z,81.79
2022-12-25T16:35:34.852Z,81.98
2022-12-25T16:38:06.876Z,82.09
2022-12-25T16:40:38.576Z,81.98
2022-12-25T16:43:10.373Z,81.91
2022-12-25T16:45:42.881Z,82.00
2022-12-25T16:48:14.915Z,81.81
2022-12-25T16:50:46.601Z,81.92
2022-12-25T16:53:18.573Z,82.44
2022-12-25T16:55:51.899Z,82.60
2022-12-25T16:58:23.578Z,82.41
2022-12-25T17:00:55.451Z,82.07
2022-12-25T17:03:27.343Z,81.84
2022-12-25T17:05:58.822Z,81.87
2022-12-25T17:08:30.581Z,81.95
2022-12-25T17:11:05.661Z,82.05
2022-12-25T17:13:37.519Z,81.97
2022-12-25T17:16:18.211Z,81.86
2022-12-25T17:18:54.268Z,81.56
2022-12-25T17:21:26.696Z,81.33
2022-12-25T17:24:03.088Z,81.25
2022-12-25T17:26:35.803Z,80.87
2022-12-25T17:29:07.458Z,81.23
2022-12-25T17:31:39.942Z,81.40
2022-12-25T17:34:12.647Z,81.65
2022-12-25T17:36:45.109Z,81.62
2022-12-25T17:39:16.812Z,81.31
2022-12-25T17:41:50.274Z,81.80
2022-12-25T17:44:22.845Z,81.78
2022-12-25T17:46:54.750Z,81.52
2022-12-25T17:49:26.409Z,81.42
2022-12-25T17:51:58.768Z,81.02
2022-12-25T17:54:30.290Z,81.11
2022-12-25T17:57:01.938Z,80.98
2022-12-25T17:59:33.679Z,81.14
2022-12-25T18:02:05.492Z,80.75
2022-12-25T18:04:37.121Z,80.57
2022-12-25T18:07:08.715Z,81.05
2022-12-25T18:09:40.661Z,81.53
2022-12-25T18:12:12.486Z,81.54
2022-12-25T18:14:44.258Z,81.63
2022-12-25T18:17:15.872Z,81.32
2022-12-25T18:19:47.538Z,81.53
2022-12-25T18:22:19.654Z,81.55
2022-12-25T18:24:51.480Z,81.63
2022-12-25T18:27:23.140Z,81.15
2022-12-25T18:29:54.709Z,81.05
2022-12-25T18:32:28.156Z,81.16
2022-12-25T18:35:00.117Z,81.27
2022-12-25T18:37:35.906Z,81.33
2022-12-25T18:40:12.631Z,81.08
2022-12-25T18:42:46.823Z,81.11
2022-12-25T18:45:20.138Z,81.17
2022-12-25T18:47:52.040Z,80.92
2022-12-25T18:50:38.675Z,80.91
2022-12-25T18:53:10.959Z,81.31
2022-12-25T18:55:45.221Z,81.45
2022-12-25T18:58:17.128Z,81.52
2022-12-25T19:00:48.898Z,81.67
2022-12-25T19:03:20.557Z,81.52
2022-12-25T19:05:52.241Z,81.66
2022-12-25T19:08:24.049Z,81.66
2022-12-25T19:10:56.000Z,81.82
2022-12-25T19:13:27.872Z,81.66
2022-12-25T19:16:02.868Z,81.50
2022-12-25T19:18:37.380Z,81.84
2022-12-25T19:21:11.320Z,82.08
2022-12-25T19:23:43.269Z,81.98
2022-12-25T19:26:15.190Z,82.32
2022-12-25T19:28:46.827Z,82.43
2022-12-25T19:31:19.448Z,81.98
2022-12-25T19:33:51.990Z,82.01
2022-12-25T19:36:24.337Z,82.36
2022-12-25T19:38:56.935Z,82.38
2022-12-25T19:41:29.383Z,82.41
2022-12-25T19:44:01.483Z,82.30
2022-12-25T19:46:35.670Z,82.48
2022-12-25T19:49:08.398Z,82.50
2022-12-25T19:51:43.337Z,81.90
2022-12-25T19:54:17.550Z,81.43
2022-12-25T19:56:50.336Z,81.04
2022-12-25T19:59:22.397Z,81.31
2022-12-25T20:01:54.943Z,81.13
2022-12-25T20:04:26.626Z,81.14
2022-12-25T20:06:59.103Z,81.16
2022-12-25T20:09:33.085Z,81.59
2022-12-25T20:12:05.377Z,81.79
2022-12-25T20:14:37.457Z,81.82
2022-12-25T20:17:15.568Z,81.49
2022-12-25T20:19:47.687Z,81.40
2022-12-25T20:22:19.371Z,81.46
2022-12-25T20:24:50.975Z,81.40
2022-12-25T20:27:23.406Z,81.65
2022-12-25T20:29:56.066Z,81.24
2022-12-25T20:32:28.993Z,81.15
2022-12-25T20:35:02.355Z,80.99
2022-12-25T20:37:34.155Z,81.18
2022-12-25T20:40:08.179Z,81.49
2022-12-25T20:42:40.521Z,81.93
2022-12-25T20:45:13.498Z,82.09
2022-12-25T20:47:45.933Z,82.16
2022-12-25T20:50:18.357Z,81.63
2022-12-25T20:52:50.031Z,81.45
2022-12-25T20:55:22.163Z,81.46
2022-12-25T20:57:54.200Z,82.02
2022-12-25T21:00:26.717Z,82.27
2022-12-25T21:02:58.993Z,82.37
2022-12-25T21:05:31.771Z,81.86
2022-12-25T21:08:03.552Z,81.44
2022-12-25T21:10:36.732Z,81.74
2022-12-25T21:13:08.747Z,81.71
2022-12-25T21:15:44.102Z,81.58
2022-12-25T21:18:16.711Z,81.56
2022-12-25T21:20:51.665Z,81.66
2022-12-25T21:23:24.215Z,81.72
2022-12-25T21:25:56.272Z,81.64
2022-12-25T21:28:30.451Z,81.50
2022-12-25T21:31:07.072Z,81.02
2022-12-25T21:33:55.371Z,80.96
2022-12-25T21:36:29.324Z,81.21
2022-12-25T21:39:04.382Z,81.45
2022-12-25T21:41:40.587Z,81.33
2022-12-25T21:44:14.466Z,81.17
2022-12-25T21:46:46.560Z,81.41
2022-12-25T21:49:39.255Z,81.37
2022-12-25T21:52:11.199Z,80.81
2022-12-25T21:54:43.117Z,80.77
2022-12-25T21:57:14.570Z,80.78
2022-12-25T21:59:46.526Z,81.12
2022-12-25T22:02:19.103Z,81.26
2022-12-25T22:04:51.290Z,81.38
2022-12-25T22:07:23.110Z,81.35
2022-12-25T22:09:55.023Z,81.47
2022-12-25T22:12:43.942Z,81.49
2022-12-25T22:15:15.652Z,80.84
2022-12-25T22:18:04.447Z,80.51
2022-12-25T22:20:39.585Z,80.89
2022-12-25T22:23:11.171Z,81.27
2022-12-25T22:25:43.115Z,80.96
2022-12-25T22:28:15.330Z,80.64
2022-12-25T22:30:46.816Z,80.19
2022-12-25T22:33:20.771Z,80.11
2022-12-25T22:35:52.599Z,79.59
2022-12-25T22:38:24.179Z,79.21
2022-12-25T22:40:55.690Z,79.34
2022-12-25T22:43:50.633Z,79.15
2022-12-25T22:46:19.082Z,78.90
2022-12-25T22:48:51.619Z,78.79
2022-12-25T22:51:23.392Z,79.06
2022-12-25T22:53:58.803Z,79.12
2022-12-25T22:56:34.965Z,79.20
2022-12-25T22:59:06.730Z,79.51
2022-12-25T23:01:38.960Z,79.74
2022-12-25T23:04:10.771Z,79.80
2022-12-25T23:06:43.147Z,79.82
2022-12-25T23:09:24.180Z,80.27
2022-12-25T23:11:56.953Z,80.65
2022-12-25T23:14:41.222Z,79.96
2022-12-25T23:17:28.755Z,80.38
2022-12-25T23:20:18.934Z,80.50
2022-12-25T23:23:07.749Z,80.66
2022-12-25T23:25:56.714Z,80.92
2022-12-25T23:28:50.920Z,80.53
2022-12-25T23:31:25.437Z,80.79
2022-12-25T23:33:57.036Z,80.44
2022-12-25T23:36:29.201Z,80.26
2022-12-25T23:39:08.567Z,80.28
2022-12-25T23:41:42.128Z,80.22
2022-12-25T23:44:15.439Z,80.37
2022-12-25T23:46:53.137Z,80.04
2022-12-25T23:49:25.880Z,79.61
2022-12-25T23:51:57.939Z,79.86
2022-12-25T23:54:31.531Z,79.68
2022-12-25T23:57:03.257Z,79.88
2022-12-25T23:59:35.024Z,79.44
